sensor_id;sensor_type;location;lat;lon;timestamp;P1;durP1;ratioP1;P2;durP2;ratioP2
69381;SDS011;56560;50.692;12.844;2023-06-14T00:00:47;14.90;;;7.90;;
69381;SDS011;56560;50.692;12.844;2023-06-14T00:03:13;15.05;;;7.75;;
69381;SDS011;56560;50.692;12.844;2023-06-14T00:05:42;15.88;;;8.18;;
69381;SDS011;56560;50.692;12.844;2023-06-14T00:08:09;15.77;;;8.15;;
69381;SDS011;56560;50.692;12.844;2023-06-14T00:10:37;15.70;;;8.13;;
69381;SDS011;56560;50.692;12.844;2023-06-14T00:13:05;15.90;;;8.02;;
69381;SDS011;56560;50.692;12.844;2023-06-14T00:15:32;15.05;;;7.80;;
69381;SDS011;56560;50.692;12.844;2023-06-14T00:17:58;15.20;;;8.18;;
69381;SDS011;56560;50.692;12.844;2023-06-14T00:20:27;16.45;;;7.70;;
69381;SDS011;56560;50.692;12.844;2023-06-14T00:22:54;15.25;;;7.80;;
69381;SDS011;56560;50.692;12.844;2023-06-14T00:25:21;14.65;;;7.80;;
69381;SDS011;56560;50.692;12.844;2023-06-14T00:27:48;14.38;;;7.57;;
69381;SDS011;56560;50.692;12.844;2023-06-14T00:30:14;16.35;;;7.60;;
69381;SDS011;56560;50.692;12.844;2023-06-14T00:32:40;14.53;;;7.77;;
69381;SDS011;56560;50.692;12.844;2023-06-14T00:35:07;16.45;;;7.97;;
69381;SDS011;56560;50.692;12.844;2023-06-14T00:37:34;15.18;;;7.32;;
69381;SDS011;56560;50.692;12.844;2023-06-14T00:39:59;15.53;;;7.60;;
69381;SDS011;56560;50.692;12.844;2023-06-14T00:42:28;15.32;;;7.38;;
69381;SDS011;56560;50.692;12.844;2023-06-14T00:44:54;17.70;;;7.88;;
69381;SDS011;56560;50.692;12.844;2023-06-14T00:47:20;15.87;;;7.77;;
69381;SDS011;56560;50.692;12.844;2023-06-14T00:49:46;15.30;;;7.60;;
69381;SDS011;56560;50.692;12.844;2023-06-14T00:52:16;14.82;;;7.47;;
69381;SDS011;56560;50.692;12.844;2023-06-14T00:54:42;15.43;;;7.57;;
69381;SDS011;56560;50.692;12.844;2023-06-14T00:57:09;15.63;;;7.97;;
69381;SDS011;56560;50.692;12.844;2023-06-14T00:59:37;15.43;;;8.07;;
69381;SDS011;56560;50.692;12.844;2023-06-14T01:02:13;14.82;;;7.47;;
69381;SDS011;56560;50.692;12.844;2023-06-14T01:04:46;15.00;;;7.40;;
69381;SDS011;56560;50.692;12.844;2023-06-14T01:15:43;14.00;;;7.30;;
69381;SDS011;56560;50.692;12.844;2023-06-14T01:18:09;14.57;;;7.57;;
69381;SDS011;56560;50.692;12.844;2023-06-14T01:20:42;17.25;;;7.70;;
69381;SDS011;56560;50.692;12.844;2023-06-14T01:23:09;15.57;;;7.32;;
69381;SDS011;56560;50.692;12.844;2023-06-14T01:25:37;14.53;;;7.67;;
69381;SDS011;56560;50.692;12.844;2023-06-14T01:28:04;15.98;;;7.63;;
69381;SDS011;56560;50.692;12.844;2023-06-14T01:30:38;15.20;;;7.32;;
69381;SDS011;56560;50.692;12.844;2023-06-14T01:33:22;14.05;;;6.40;;
69381;SDS011;56560;50.692;12.844;2023-06-14T01:35:51;13.50;;;6.50;;
69381;SDS011;56560;50.692;12.844;2023-06-14T01:38:19;16.77;;;7.23;;
69381;SDS011;56560;50.692;12.844;2023-06-14T01:40:50;15.48;;;7.10;;
69381;SDS011;56560;50.692;12.844;2023-06-14T01:43:18;16.67;;;7.90;;
69381;SDS011;56560;50.692;12.844;2023-06-14T01:45:45;15.20;;;7.25;;
69381;SDS011;56560;50.692;12.844;2023-06-14T01:48:13;17.17;;;7.70;;
69381;SDS011;56560;50.692;12.844;2023-06-14T01:50:39;16.43;;;7.20;;
69381;SDS011;56560;50.692;12.844;2023-06-14T01:53:08;18.38;;;6.80;;
69381;SDS011;56560;50.692;12.844;2023-06-14T01:55:35;14.20;;;6.90;;
69381;SDS011;56560;50.692;12.844;2023-06-14T01:58:05;14.05;;;7.32;;
69381;SDS011;56560;50.692;12.844;2023-06-14T02:00:31;14.95;;;7.05;;
69381;SDS011;56560;50.692;12.844;2023-06-14T02:02:57;15.10;;;6.43;;
69381;SDS011;56560;50.692;12.844;2023-06-14T02:05:23;14.07;;;6.50;;
69381;SDS011;56560;50.692;12.844;2023-06-14T02:07:49;14.30;;;6.13;;
69381;SDS011;56560;50.692;12.844;2023-06-14T02:10:15;13.38;;;6.05;;
69381;SDS011;56560;50.692;12.844;2023-06-14T02:12:42;15.65;;;6.38;;
69381;SDS011;56560;50.692;12.844;2023-06-14T02:15:08;13.93;;;6.00;;
69381;SDS011;56560;50.692;12.844;2023-06-14T02:17:35;15.80;;;6.05;;
69381;SDS011;56560;50.692;12.844;2023-06-14T02:20:00;13.80;;;6.38;;
69381;SDS011;56560;50.692;12.844;2023-06-14T02:22:28;13.93;;;6.38;;
69381;SDS011;56560;50.692;12.844;2023-06-14T02:24:53;15.63;;;5.85;;
69381;SDS011;56560;50.692;12.844;2023-06-14T02:27:19;12.47;;;6.17;;
69381;SDS011;56560;50.692;12.844;2023-06-14T02:29:45;15.57;;;6.45;;
69381;SDS011;56560;50.692;12.844;2023-06-14T02:32:10;13.40;;;6.00;;
69381;SDS011;56560;50.692;12.844;2023-06-14T02:34:36;15.57;;;6.77;;
69381;SDS011;56560;50.692;12.844;2023-06-14T02:37:02;13.95;;;6.70;;
69381;SDS011;56560;50.692;12.844;2023-06-14T02:39:28;14.20;;;6.50;;
69381;SDS011;56560;50.692;12.844;2023-06-14T02:41:54;15.20;;;6.53;;
69381;SDS011;56560;50.692;12.844;2023-06-14T02:44:23;15.45;;;6.53;;
69381;SDS011;56560;50.692;12.844;2023-06-14T02:46:51;14.23;;;6.63;;
69381;SDS011;56560;50.692;12.844;2023-06-14T02:49:17;13.77;;;6.23;;
69381;SDS011;56560;50.692;12.844;2023-06-14T02:51:43;13.90;;;6.50;;
69381;SDS011;56560;50.692;12.844;2023-06-14T02:54:08;12.68;;;5.70;;
69381;SDS011;56560;50.692;12.844;2023-06-14T02:56:34;13.77;;;6.33;;
69381;SDS011;56560;50.692;12.844;2023-06-14T02:59:00;12.88;;;5.95;;
69381;SDS011;56560;50.692;12.844;2023-06-14T03:01:27;16.23;;;6.38;;
69381;SDS011;56560;50.692;12.844;2023-06-14T03:04:02;13.98;;;5.90;;
69381;SDS011;56560;50.692;12.844;2023-06-14T03:06:29;14.07;;;6.18;;
69381;SDS011;56560;50.692;12.844;2023-06-14T03:08:55;17.47;;;7.03;;
69381;SDS011;56560;50.692;12.844;2023-06-14T03:11:25;16.27;;;6.35;;
69381;SDS011;56560;50.692;12.844;2023-06-14T03:13:51;16.60;;;6.40;;
69381;SDS011;56560;50.692;12.844;2023-06-14T03:16:17;14.82;;;6.75;;
69381;SDS011;56560;50.692;12.844;2023-06-14T03:18:50;14.70;;;6.50;;
69381;SDS011;56560;50.692;12.844;2023-06-14T03:21:17;17.07;;;6.40;;
69381;SDS011;56560;50.692;12.844;2023-06-14T03:23:46;18.30;;;6.30;;
69381;SDS011;56560;50.692;12.844;2023-06-14T03:26:13;15.15;;;6.38;;
69381;SDS011;56560;50.692;12.844;2023-06-14T03:28:40;14.02;;;6.32;;
69381;SDS011;56560;50.692;12.844;2023-06-14T03:31:06;15.65;;;6.60;;
69381;SDS011;56560;50.692;12.844;2023-06-14T03:33:33;15.47;;;6.30;;
69381;SDS011;56560;50.692;12.844;2023-06-14T03:35:59;16.85;;;6.55;;
69381;SDS011;56560;50.692;12.844;2023-06-14T03:38:25;14.67;;;6.87;;
69381;SDS011;56560;50.692;12.844;2023-06-14T03:40:50;15.70;;;6.78;;
69381;SDS011;56560;50.692;12.844;2023-06-14T03:43:16;14.37;;;6.50;;
69381;SDS011;56560;50.692;12.844;2023-06-14T03:45:41;14.75;;;6.55;;
69381;SDS011;56560;50.692;12.844;2023-06-14T03:48:08;12.67;;;6.17;;
69381;SDS011;56560;50.692;12.844;2023-06-14T03:50:34;14.98;;;6.60;;
69381;SDS011;56560;50.692;12.844;2023-06-14T03:53:03;13.32;;;6.40;;
69381;SDS011;56560;50.692;12.844;2023-06-14T03:55:29;14.57;;;6.50;;
69381;SDS011;56560;50.692;12.844;2023-06-14T03:57:56;15.02;;;6.50;;
69381;SDS011;56560;50.692;12.844;2023-06-14T04:00:22;13.65;;;6.30;;
69381;SDS011;56560;50.692;12.844;2023-06-14T04:02:48;13.40;;;6.30;;
69381;SDS011;56560;50.692;12.844;2023-06-14T04:05:13;13.80;;;6.57;;
69381;SDS011;56560;50.692;12.844;2023-06-14T04:07:41;17.00;;;6.60;;
69381;SDS011;56560;50.692;12.844;2023-06-14T04:10:10;13.93;;;6.90;;
69381;SDS011;56560;50.692;12.844;2023-06-14T04:12:39;14.68;;;6.05;;
69381;SDS011;56560;50.692;12.844;2023-06-14T04:15:05;14.57;;;6.20;;
69381;SDS011;56560;50.692;12.844;2023-06-14T04:17:33;14.40;;;6.60;;
69381;SDS011;56560;50.692;12.844;2023-06-14T04:19:59;15.57;;;7.07;;
69381;SDS011;56560;50.692;12.844;2023-06-14T04:22:25;14.80;;;6.65;;
69381;SDS011;56560;50.692;12.844;2023-06-14T04:24:53;13.80;;;6.57;;
69381;SDS011;56560;50.692;12.844;2023-06-14T04:27:21;15.00;;;7.00;;
69381;SDS011;56560;50.692;12.844;2023-06-14T04:29:54;15.98;;;7.30;;
69381;SDS011;56560;50.692;12.844;2023-06-14T04:32:24;14.18;;;6.95;;
69381;SDS011;56560;50.692;12.844;2023-06-14T04:34:52;15.05;;;6.78;;
69381;SDS011;56560;50.692;12.844;2023-06-14T04:37:19;14.65;;;6.88;;
69381;SDS011;56560;50.692;12.844;2023-06-14T04:39:48;16.75;;;7.18;;
69381;SDS011;56560;50.692;12.844;2023-06-14T04:42:15;17.67;;;6.72;;
69381;SDS011;56560;50.692;12.844;2023-06-14T04:44:41;14.45;;;7.00;;
69381;SDS011;56560;50.692;12.844;2023-06-14T04:47:08;16.30;;;7.65;;
69381;SDS011;56560;50.692;12.844;2023-06-14T04:49:34;17.02;;;7.22;;
69381;SDS011;56560;50.692;12.844;2023-06-14T04:52:00;16.13;;;7.43;;
69381;SDS011;56560;50.692;12.844;2023-06-14T04:54:26;16.08;;;7.35;;
69381;SDS011;56560;50.692;12.844;2023-06-14T04:56:52;14.38;;;6.60;;
69381;SDS011;56560;50.692;12.844;2023-06-14T04:59:20;14.93;;;6.53;;
69381;SDS011;56560;50.692;12.844;2023-06-14T05:01:48;14.10;;;7.03;;
69381;SDS011;56560;50.692;12.844;2023-06-14T05:04:14;14.80;;;7.35;;
69381;SDS011;56560;50.692;12.844;2023-06-14T05:06:41;15.40;;;7.50;;
69381;SDS011;56560;50.692;12.844;2023-06-14T05:09:09;14.93;;;6.90;;
69381;SDS011;56560;50.692;12.844;2023-06-14T05:11:39;12.93;;;6.50;;
69381;SDS011;56560;50.692;12.844;2023-06-14T05:14:05;13.52;;;6.75;;
69381;SDS011;56560;50.692;12.844;2023-06-14T05:16:31;17.77;;;7.20;;
69381;SDS011;56560;50.692;12.844;2023-06-14T05:18:57;16.13;;;7.67;;
69381;SDS011;56560;50.692;12.844;2023-06-14T05:21:23;13.75;;;6.90;;
69381;SDS011;56560;50.692;12.844;2023-06-14T05:23:49;15.07;;;7.45;;
69381;SDS011;56560;50.692;12.844;2023-06-14T05:26:15;13.60;;;6.78;;
69381;SDS011;56560;50.692;12.844;2023-06-14T05:28:41;17.08;;;6.40;;
69381;SDS011;56560;50.692;12.844;2023-06-14T05:31:07;13.23;;;6.50;;
69381;SDS011;56560;50.692;12.844;2023-06-14T05:33:32;13.68;;;6.45;;
69381;SDS011;56560;50.692;12.844;2023-06-14T05:35:58;13.33;;;6.50;;
69381;SDS011;56560;50.692;12.844;2023-06-14T05:38:24;13.55;;;6.60;;
69381;SDS011;56560;50.692;12.844;2023-06-14T05:40:50;14.60;;;6.47;;
69381;SDS011;56560;50.692;12.844;2023-06-14T05:43:16;15.15;;;6.65;;
69381;SDS011;56560;50.692;12.844;2023-06-14T05:45:42;15.70;;;7.05;;
69381;SDS011;56560;50.692;12.844;2023-06-14T05:48:08;14.17;;;6.47;;
69381;SDS011;56560;50.692;12.844;2023-06-14T05:50:33;14.20;;;6.57;;
69381;SDS011;56560;50.692;12.844;2023-06-14T05:52:59;15.38;;;7.07;;
69381;SDS011;56560;50.692;12.844;2023-06-14T05:55:25;16.10;;;7.43;;
69381;SDS011;56560;50.692;12.844;2023-06-14T05:57:50;13.75;;;7.32;;
69381;SDS011;56560;50.692;12.844;2023-06-14T06:00:16;13.95;;;6.63;;
69381;SDS011;56560;50.692;12.844;2023-06-14T06:02:43;13.98;;;6.20;;
69381;SDS011;56560;50.692;12.844;2023-06-14T06:05:09;14.05;;;6.40;;
69381;SDS011;56560;50.692;12.844;2023-06-14T06:07:36;15.15;;;7.15;;
69381;SDS011;56560;50.692;12.844;2023-06-14T06:10:02;13.90;;;6.93;;
69381;SDS011;56560;50.692;12.844;2023-06-14T06:12:29;13.05;;;6.60;;
69381;SDS011;56560;50.692;12.844;2023-06-14T06:14:54;14.10;;;6.77;;
69381;SDS011;56560;50.692;12.844;2023-06-14T06:17:20;13.65;;;6.63;;
69381;SDS011;56560;50.692;12.844;2023-06-14T06:19:46;14.77;;;7.20;;
69381;SDS011;56560;50.692;12.844;2023-06-14T06:22:12;15.55;;;6.93;;
69381;SDS011;56560;50.692;12.844;2023-06-14T06:24:37;14.10;;;6.90;;
69381;SDS011;56560;50.692;12.844;2023-06-14T06:27:03;14.15;;;6.57;;
69381;SDS011;56560;50.692;12.844;2023-06-14T06:29:29;12.38;;;6.20;;
69381;SDS011;56560;50.692;12.844;2023-06-14T06:31:54;12.10;;;6.53;;
69381;SDS011;56560;50.692;12.844;2023-06-14T06:34:21;13.45;;;6.00;;
69381;SDS011;56560;50.692;12.844;2023-06-14T06:36:47;15.07;;;6.40;;
69381;SDS011;56560;50.692;12.844;2023-06-14T06:39:12;12.45;;;6.07;;
69381;SDS011;56560;50.692;12.844;2023-06-14T06:41:40;13.30;;;5.95;;
69381;SDS011;56560;50.692;12.844;2023-06-14T06:44:06;11.43;;;5.23;;
69381;SDS011;56560;50.692;12.844;2023-06-14T06:46:32;9.80;;;4.80;;
69381;SDS011;56560;50.692;12.844;2023-06-14T06:48:58;12.10;;;5.40;;
69381;SDS011;56560;50.692;12.844;2023-06-14T06:51:24;10.53;;;3.90;;
69381;SDS011;56560;50.692;12.844;2023-06-14T06:53:53;10.68;;;5.30;;
69381;SDS011;56560;50.692;12.844;2023-06-14T06:56:19;11.18;;;5.07;;
69381;SDS011;56560;50.692;12.844;2023-06-14T06:58:49;12.35;;;5.30;;
69381;SDS011;56560;50.692;12.844;2023-06-14T07:01:15;11.82;;;5.45;;
69381;SDS011;56560;50.692;12.844;2023-06-14T07:03:41;10.98;;;5.50;;
69381;SDS011;56560;50.692;12.844;2023-06-14T07:06:07;12.02;;;5.60;;
69381;SDS011;56560;50.692;12.844;2023-06-14T07:08:33;11.17;;;5.40;;
69381;SDS011;56560;50.692;12.844;2023-06-14T07:10:59;11.38;;;5.32;;
69381;SDS011;56560;50.692;12.844;2023-06-14T07:13:25;13.57;;;5.87;;
69381;SDS011;56560;50.692;12.844;2023-06-14T07:15:50;9.88;;;5.00;;
69381;SDS011;56560;50.692;12.844;2023-06-14T07:18:20;12.07;;;5.05;;
69381;SDS011;56560;50.692;12.844;2023-06-14T07:20:46;11.00;;;5.20;;
69381;SDS011;56560;50.692;12.844;2023-06-14T07:23:12;11.75;;;5.60;;
69381;SDS011;56560;50.692;12.844;2023-06-14T07:25:38;12.33;;;5.33;;
69381;SDS011;56560;50.692;12.844;2023-06-14T07:28:04;11.30;;;4.97;;
69381;SDS011;56560;50.692;12.844;2023-06-14T07:30:29;11.03;;;5.33;;
69381;SDS011;56560;50.692;12.844;2023-06-14T07:32:55;12.95;;;5.20;;
69381;SDS011;56560;50.692;12.844;2023-06-14T07:35:21;14.07;;;5.65;;
69381;SDS011;56560;50.692;12.844;2023-06-14T07:37:47;11.43;;;5.40;;
69381;SDS011;56560;50.692;12.844;2023-06-14T07:40:13;11.70;;;5.22;;
69381;SDS011;56560;50.692;12.844;2023-06-14T07:42:39;11.57;;;5.43;;
69381;SDS011;56560;50.692;12.844;2023-06-14T07:45:05;12.23;;;5.07;;
69381;SDS011;56560;50.692;12.844;2023-06-14T07:47:31;11.52;;;5.72;;
69381;SDS011;56560;50.692;12.844;2023-06-14T07:49:57;12.70;;;6.50;;
69381;SDS011;56560;50.692;12.844;2023-06-14T07:52:24;11.95;;;5.90;;
69381;SDS011;56560;50.692;12.844;2023-06-14T07:54:50;12.48;;;5.85;;
69381;SDS011;56560;50.692;12.844;2023-06-14T07:57:16;11.27;;;5.80;;
69381;SDS011;56560;50.692;12.844;2023-06-14T07:59:42;15.30;;;6.10;;
69381;SDS011;56560;50.692;12.844;2023-06-14T08:02:07;11.65;;;5.50;;
69381;SDS011;56560;50.692;12.844;2023-06-14T08:04:33;11.73;;;5.50;;
69381;SDS011;56560;50.692;12.844;2023-06-14T08:06:59;12.52;;;5.93;;
69381;SDS011;56560;50.692;12.844;2023-06-14T08:09:25;11.80;;;5.80;;
69381;SDS011;56560;50.692;12.844;2023-06-14T08:11:53;11.63;;;5.82;;
69381;SDS011;56560;50.692;12.844;2023-06-14T08:14:18;11.40;;;6.03;;
69381;SDS011;56560;50.692;12.844;2023-06-14T08:16:44;11.33;;;5.70;;
69381;SDS011;56560;50.692;12.844;2023-06-14T08:19:09;10.95;;;5.95;;
69381;SDS011;56560;50.692;12.844;2023-06-14T08:21:35;11.17;;;5.80;;
69381;SDS011;56560;50.692;12.844;2023-06-14T08:24:01;14.70;;;6.07;;
69381;SDS011;56560;50.692;12.844;2023-06-14T08:26:27;13.33;;;6.20;;
69381;SDS011;56560;50.692;12.844;2023-06-14T08:28:56;11.07;;;5.82;;
69381;SDS011;56560;50.692;12.844;2023-06-14T08:31:23;11.32;;;6.07;;
69381;SDS011;56560;50.692;12.844;2023-06-14T08:33:50;11.93;;;5.60;;
69381;SDS011;56560;50.692;12.844;2023-06-14T08:36:16;13.57;;;6.30;;
69381;SDS011;56560;50.692;12.844;2023-06-14T08:38:41;11.37;;;6.30;;
69381;SDS011;56560;50.692;12.844;2023-06-14T08:41:07;11.68;;;6.50;;
69381;SDS011;56560;50.692;12.844;2023-06-14T08:43:36;12.70;;;6.53;;
69381;SDS011;56560;50.692;12.844;2023-06-14T08:46:02;11.30;;;5.97;;
69381;SDS011;56560;50.692;12.844;2023-06-14T08:48:29;11.48;;;5.70;;
69381;SDS011;56560;50.692;12.844;2023-06-14T08:51:01;10.73;;;5.97;;
69381;SDS011;56560;50.692;12.844;2023-06-14T08:53:32;11.82;;;6.20;;
69381;SDS011;56560;50.692;12.844;2023-06-14T08:56:02;12.55;;;6.22;;
69381;SDS011;56560;50.692;12.844;2023-06-14T08:58:30;12.30;;;6.43;;
69381;SDS011;56560;50.692;12.844;2023-06-14T09:01:00;11.10;;;5.50;;
69381;SDS011;56560;50.692;12.844;2023-06-14T09:03:27;10.73;;;5.38;;
69381;SDS011;56560;50.692;12.844;2023-06-14T09:05:59;11.50;;;4.85;;
69381;SDS011;56560;50.692;12.844;2023-06-14T09:08:26;12.15;;;4.85;;
69381;SDS011;56560;50.692;12.844;2023-06-14T09:10:55;10.40;;;5.40;;
69381;SDS011;56560;50.692;12.844;2023-06-14T09:13:21;12.23;;;5.03;;
69381;SDS011;56560;50.692;12.844;2023-06-14T09:15:47;10.70;;;4.90;;
69381;SDS011;56560;50.692;12.844;2023-06-14T09:18:13;13.57;;;5.07;;
69381;SDS011;56560;50.692;12.844;2023-06-14T09:20:39;11.05;;;5.30;;
69381;SDS011;56560;50.692;12.844;2023-06-14T09:23:06;13.38;;;5.00;;
69381;SDS011;56560;50.692;12.844;2023-06-14T09:25:33;11.97;;;5.00;;
69381;SDS011;56560;50.692;12.844;2023-06-14T09:28:07;13.02;;;6.00;;
69381;SDS011;56560;50.692;12.844;2023-06-14T09:30:33;9.80;;;5.20;;
69381;SDS011;56560;50.692;12.844;2023-06-14T09:33:00;11.13;;;5.22;;
69381;SDS011;56560;50.692;12.844;2023-06-14T09:35:26;11.20;;;5.47;;
69381;SDS011;56560;50.692;12.844;2023-06-14T09:37:54;10.57;;;5.00;;
69381;SDS011;56560;50.692;12.844;2023-06-14T09:40:20;11.30;;;4.85;;
69381;SDS011;56560;50.692;12.844;2023-06-14T09:42:47;10.93;;;5.07;;
69381;SDS011;56560;50.692;12.844;2023-06-14T09:45:12;9.73;;;4.67;;
69381;SDS011;56560;50.692;12.844;2023-06-14T09:47:39;10.07;;;4.80;;
69381;SDS011;56560;50.692;12.844;2023-06-14T09:50:05;11.60;;;5.00;;
69381;SDS011;56560;50.692;12.844;2023-06-14T09:52:31;9.52;;;5.00;;
69381;SDS011;56560;50.692;12.844;2023-06-14T09:54:57;10.03;;;4.70;;
69381;SDS011;56560;50.692;12.844;2023-06-14T09:57:24;13.77;;;4.63;;
69381;SDS011;56560;50.692;12.844;2023-06-14T09:59:53;9.50;;;4.60;;
69381;SDS011;56560;50.692;12.844;2023-06-14T10:02:31;10.27;;;4.93;;
69381;SDS011;56560;50.692;12.844;2023-06-14T10:05:06;12.17;;;5.10;;
69381;SDS011;56560;50.692;12.844;2023-06-14T10:07:48;10.35;;;5.00;;
69381;SDS011;56560;50.692;12.844;2023-06-14T10:10:17;11.02;;;4.88;;
69381;SDS011;56560;50.692;12.844;2023-06-14T10:12:43;11.93;;;5.28;;
69381;SDS011;56560;50.692;12.844;2023-06-14T10:15:09;9.57;;;4.53;;
69381;SDS011;56560;50.692;12.844;2023-06-14T10:17:53;9.98;;;4.97;;
69381;SDS011;56560;50.692;12.844;2023-06-14T10:20:35;13.35;;;6.65;;
69381;SDS011;56560;50.692;12.844;2023-06-14T10:23:27;11.85;;;5.20;;
69381;SDS011;56560;50.692;12.844;2023-06-14T10:25:54;11.33;;;5.50;;
69381;SDS011;56560;50.692;12.844;2023-06-14T10:28:24;10.90;;;5.22;;
69381;SDS011;56560;50.692;12.844;2023-06-14T10:31:12;12.10;;;5.07;;
69381;SDS011;56560;50.692;12.844;2023-06-14T10:36:37;10.05;;;4.90;;
69381;SDS011;56560;50.692;12.844;2023-06-14T10:41:40;10.38;;;5.10;;
69381;SDS011;56560;50.692;12.844;2023-06-14T10:46:38;10.60;;;5.13;;
69381;SDS011;56560;50.692;12.844;2023-06-14T10:49:04;9.27;;;4.10;;
69381;SDS011;56560;50.692;12.844;2023-06-14T10:51:30;13.47;;;4.90;;
69381;SDS011;56560;50.692;12.844;2023-06-14T10:54:17;13.82;;;5.30;;
69381;SDS011;56560;50.692;12.844;2023-06-14T10:56:49;10.23;;;4.90;;
69381;SDS011;56560;50.692;12.844;2023-06-14T10:59:17;11.05;;;5.32;;
69381;SDS011;56560;50.692;12.844;2023-06-14T11:04:15;13.70;;;6.20;;
69381;SDS011;56560;50.692;12.844;2023-06-14T11:06:48;11.07;;;6.05;;
69381;SDS011;56560;50.692;12.844;2023-06-14T11:12:03;10.82;;;5.80;;
69381;SDS011;56560;50.692;12.844;2023-06-14T11:14:30;11.25;;;5.50;;
69381;SDS011;56560;50.692;12.844;2023-06-14T11:16:56;10.50;;;5.40;;
69381;SDS011;56560;50.692;12.844;2023-06-14T11:19:22;11.02;;;5.65;;
69381;SDS011;56560;50.692;12.844;2023-06-14T11:21:48;10.40;;;5.77;;
69381;SDS011;56560;50.692;12.844;2023-06-14T11:24:14;11.63;;;5.38;;
69381;SDS011;56560;50.692;12.844;2023-06-14T11:26:40;11.93;;;5.78;;
69381;SDS011;56560;50.692;12.844;2023-06-14T11:29:06;9.90;;;5.47;;
69381;SDS011;56560;50.692;12.844;2023-06-14T11:31:31;9.47;;;5.07;;
69381;SDS011;56560;50.692;12.844;2023-06-14T11:33:57;10.13;;;5.33;;
69381;SDS011;56560;50.692;12.844;2023-06-14T11:36:28;9.55;;;4.90;;
69381;SDS011;56560;50.692;12.844;2023-06-14T11:38:59;11.30;;;5.35;;
69381;SDS011;56560;50.692;12.844;2023-06-14T11:44:03;10.75;;;5.63;;
69381;SDS011;56560;50.692;12.844;2023-06-14T11:46:29;10.63;;;5.37;;
69381;SDS011;56560;50.692;12.844;2023-06-14T11:48:55;9.48;;;5.28;;
69381;SDS011;56560;50.692;12.844;2023-06-14T11:51:20;9.73;;;4.70;;
69381;SDS011;56560;50.692;12.844;2023-06-14T11:53:46;10.15;;;4.72;;
69381;SDS011;56560;50.692;12.844;2023-06-14T11:56:12;9.10;;;4.93;;
69381;SDS011;56560;50.692;12.844;2023-06-14T11:58:38;9.17;;;4.97;;
69381;SDS011;56560;50.692;12.844;2023-06-14T12:01:05;12.65;;;4.90;;
69381;SDS011;56560;50.692;12.844;2023-06-14T12:03:31;15.50;;;5.60;;
69381;SDS011;56560;50.692;12.844;2023-06-14T12:06:06;11.47;;;6.17;;
69381;SDS011;56560;50.692;12.844;2023-06-14T12:08:33;9.65;;;4.95;;
69381;SDS011;56560;50.692;12.844;2023-06-14T12:11:12;9.18;;;4.40;;
69381;SDS011;56560;50.692;12.844;2023-06-14T12:13:41;9.75;;;4.40;;
69381;SDS011;56560;50.692;12.844;2023-06-14T12:16:08;10.70;;;4.25;;
69381;SDS011;56560;50.692;12.844;2023-06-14T12:18:38;8.50;;;4.50;;
69381;SDS011;56560;50.692;12.844;2023-06-14T12:21:06;17.85;;;5.20;;
69381;SDS011;56560;50.692;12.844;2023-06-14T12:23:44;11.98;;;4.57;;
69381;SDS011;56560;50.692;12.844;2023-06-14T12:26:15;8.60;;;4.15;;
69381;SDS011;56560;50.692;12.844;2023-06-14T12:28:44;8.10;;;4.00;;
69381;SDS011;56560;50.692;12.844;2023-06-14T12:31:11;8.77;;;4.40;;
69381;SDS011;56560;50.692;12.844;2023-06-14T12:33:37;12.02;;;4.40;;
69381;SDS011;56560;50.692;12.844;2023-06-14T12:36:04;12.10;;;4.20;;
69381;SDS011;56560;50.692;12.844;2023-06-14T12:38:32;8.30;;;3.90;;
69381;SDS011;56560;50.692;12.844;2023-06-14T12:40:58;8.63;;;4.13;;
69381;SDS011;56560;50.692;12.844;2023-06-14T12:43:24;10.13;;;4.03;;
69381;SDS011;56560;50.692;12.844;2023-06-14T12:45:49;10.23;;;4.40;;
69381;SDS011;56560;50.692;12.844;2023-06-14T12:48:15;9.73;;;4.13;;
69381;SDS011;56560;50.692;12.844;2023-06-14T12:50:41;9.52;;;4.10;;
69381;SDS011;56560;50.692;12.844;2023-06-14T12:53:07;9.40;;;4.33;;
69381;SDS011;56560;50.692;12.844;2023-06-14T12:55:32;8.02;;;3.65;;
69381;SDS011;56560;50.692;12.844;2023-06-14T12:57:58;7.90;;;3.70;;
69381;SDS011;56560;50.692;12.844;2023-06-14T13:00:24;7.57;;;3.38;;
69381;SDS011;56560;50.692;12.844;2023-06-14T13:02:51;7.60;;;3.90;;
69381;SDS011;56560;50.692;12.844;2023-06-14T13:05:17;7.97;;;3.60;;
69381;SDS011;56560;50.692;12.844;2023-06-14T13:07:43;9.10;;;4.05;;
69381;SDS011;56560;50.692;12.844;2023-06-14T13:10:09;8.20;;;4.15;;
69381;SDS011;56560;50.692;12.844;2023-06-14T13:12:35;9.80;;;4.20;;
69381;SDS011;56560;50.692;12.844;2023-06-14T13:15:01;8.30;;;4.17;;
69381;SDS011;56560;50.692;12.844;2023-06-14T13:17:27;8.75;;;4.20;;
69381;SDS011;56560;50.692;12.844;2023-06-14T13:19:53;8.70;;;4.23;;
69381;SDS011;56560;50.692;12.844;2023-06-14T13:22:18;8.77;;;4.28;;
69381;SDS011;56560;50.692;12.844;2023-06-14T13:24:44;8.77;;;4.40;;
69381;SDS011;56560;50.692;12.844;2023-06-14T13:27:10;9.15;;;4.70;;
69381;SDS011;56560;50.692;12.844;2023-06-14T13:29:35;8.77;;;4.73;;
69381;SDS011;56560;50.692;12.844;2023-06-14T13:32:02;9.35;;;4.90;;
69381;SDS011;56560;50.692;12.844;2023-06-14T13:34:28;10.85;;;4.90;;
69381;SDS011;56560;50.692;12.844;2023-06-14T13:36:54;11.30;;;4.97;;
69381;SDS011;56560;50.692;12.844;2023-06-14T13:39:20;10.73;;;5.40;;
69381;SDS011;56560;50.692;12.844;2023-06-14T13:41:46;8.77;;;4.80;;
69381;SDS011;56560;50.692;12.844;2023-06-14T13:44:11;9.63;;;4.80;;
69381;SDS011;56560;50.692;12.844;2023-06-14T13:46:39;8.77;;;4.70;;
69381;SDS011;56560;50.692;12.844;2023-06-14T13:49:07;9.70;;;4.70;;
69381;SDS011;56560;50.692;12.844;2023-06-14T13:51:33;10.70;;;4.77;;
69381;SDS011;56560;50.692;12.844;2023-06-14T13:54:00;9.77;;;4.82;;
69381;SDS011;56560;50.692;12.844;2023-06-14T13:56:26;11.35;;;4.90;;
69381;SDS011;56560;50.692;12.844;2023-06-14T13:58:51;8.55;;;4.40;;
69381;SDS011;56560;50.692;12.844;2023-06-14T14:01:17;8.27;;;4.20;;
69381;SDS011;56560;50.692;12.844;2023-06-14T14:03:44;10.13;;;4.78;;
69381;SDS011;56560;50.692;12.844;2023-06-14T14:06:11;9.20;;;4.50;;
69381;SDS011;56560;50.692;12.844;2023-06-14T14:08:37;10.98;;;4.50;;
69381;SDS011;56560;50.692;12.844;2023-06-14T14:11:03;8.37;;;4.07;;
69381;SDS011;56560;50.692;12.844;2023-06-14T14:13:28;7.90;;;4.10;;
69381;SDS011;56560;50.692;12.844;2023-06-14T14:15:54;8.35;;;4.05;;
69381;SDS011;56560;50.692;12.844;2023-06-14T14:18:20;10.80;;;4.27;;
69381;SDS011;56560;50.692;12.844;2023-06-14T14:20:46;8.70;;;4.20;;
69381;SDS011;56560;50.692;12.844;2023-06-14T14:23:12;7.47;;;3.83;;
69381;SDS011;56560;50.692;12.844;2023-06-14T14:25:37;9.97;;;3.70;;
69381;SDS011;56560;50.692;12.844;2023-06-14T14:28:03;9.27;;;4.00;;
69381;SDS011;56560;50.692;12.844;2023-06-14T14:30:29;9.43;;;3.80;;
69381;SDS011;56560;50.692;12.844;2023-06-14T14:32:54;8.75;;;4.78;;
69381;SDS011;56560;50.692;12.844;2023-06-14T14:35:20;10.43;;;4.77;;
69381;SDS011;56560;50.692;12.844;2023-06-14T14:37:47;8.10;;;4.40;;
69381;SDS011;56560;50.692;12.844;2023-06-14T14:40:13;11.13;;;4.57;;
69381;SDS011;56560;50.692;12.844;2023-06-14T14:42:38;8.90;;;4.37;;
69381;SDS011;56560;50.692;12.844;2023-06-14T14:45:04;9.63;;;4.50;;
69381;SDS011;56560;50.692;12.844;2023-06-14T14:47:30;10.27;;;4.57;;